createdAt,value
2022-11-10T00:00:58.641Z,87.87
2022-11-10T00:03:44.010Z,87.88
2022-11-10T00:06:29.586Z,87.87
2022-11-10T00:09:15.254Z,87.88
2022-11-10T00:12:00.898Z,88.02
2022-11-10T00:15:04.978Z,88.06
2022-11-10T00:17:50.254Z,88.13
2022-11-10T00:20:35.697Z,88.27
2022-11-10T00:23:21.268Z,88.09
2022-11-10T00:26:14.985Z,88.11
2022-11-10T00:29:00.463Z,88.22
2022-11-10T00:31:46.037Z,88.36
2022-11-10T00:34:31.481Z,88.51
2022-11-10T00:37:16.790Z,88.63
2022-11-10T00:40:02.291Z,88.72
2022-11-10T00:42:47.543Z,88.46
2022-11-10T00:45:33.087Z,88.80
2022-11-10T00:48:18.604Z,88.88
2022-11-10T00:51:04.296Z,88.85
2022-11-10T00:53:50.102Z,89.21
2022-11-10T00:56:35.449Z,89.35
2022-11-10T00:59:20.875Z,89.25
2022-11-10T01:02:06.801Z,89.31
2022-11-10T01:04:52.356Z,89.22
2022-11-10T01:07:37.857Z,89.38
2022-11-10T01:10:23.276Z,89.57
2022-11-10T01:13:09.254Z,89.63
2022-11-10T01:15:54.516Z,89.85
2022-11-10T01:18:40.041Z,89.67
2022-11-10T01:21:26.296Z,89.82
2022-11-10T01:24:11.570Z,90.05
2022-11-10T01:26:57.251Z,90.04
2022-11-10T01:29:42.686Z,90.09
2022-11-10T01:32:28.343Z,90.11
2022-11-10T01:35:13.605Z,89.81
2022-11-10T01:37:59.156Z,89.92
2022-11-10T01:40:45.067Z,89.95
2022-11-10T01:43:30.731Z,90.16
2022-11-10T01:46:16.522Z,90.18
2022-11-10T01:49:02.371Z,90.31
2022-11-10T01:51:53.739Z,90.41
2022-11-10T01:54:41.352Z,90.47
2022-11-10T01:57:26.792Z,90.54
2022-11-10T02:00:12.606Z,90.20
2022-11-10T02:03:02.240Z,90.30
2022-11-10T02:05:47.266Z,90.41
2022-11-10T02:08:32.598Z,90.30
2022-11-10T02:11:17.820Z,90.66
2022-11-10T02:14:03.502Z,90.70
2022-11-10T02:16:48.931Z,90.24
2022-11-10T02:19:40.651Z,90.47
2022-11-10T02:22:26.386Z,90.41
2022-11-10T02:25:13.938Z,90.43
2022-11-10T02:27:59.291Z,90.51
2022-11-10T02:30:44.965Z,90.62
2022-11-10T02:33:30.460Z,90.59
2022-11-10T02:36:16.040Z,90.72
2022-11-10T02:39:01.534Z,90.45
2022-11-10T02:41:46.955Z,90.65
2022-11-10T02:44:32.561Z,90.65
2022-11-10T02:47:17.546Z,90.75
2022-11-10T02:50:03.029Z,90.79
2022-11-10T02:52:48.265Z,90.78
2022-11-10T02:55:33.575Z,91.02
2022-11-10T02:58:19.161Z,90.97
2022-11-10T03:01:05.907Z,91.29
2022-11-10T03:03:51.419Z,91.57
2022-11-10T03:06:36.835Z,91.57
2022-11-10T03:09:22.218Z,91.90
2022-11-10T03:12:07.836Z,91.91
2022-11-10T03:14:53.204Z,91.99
2022-11-10T03:17:38.827Z,92.12
2022-11-10T03:20:24.249Z,92.36
2022-11-10T03:23:09.538Z,92.36
2022-11-10T03:25:54.939Z,92.34
2022-11-10T03:28:40.364Z,92.32
2022-11-10T03:31:25.971Z,92.08
2022-11-10T03:34:11.423Z,92.31
2022-11-10T03:36:56.747Z,92.21
2022-11-10T03:39:42.047Z,92.38
2022-11-10T03:42:27.587Z,92.21
2022-11-10T03:45:13.761Z,92.25
2022-11-10T03:47:59.169Z,92.34
2022-11-10T03:50:44.640Z,92.25
2022-11-10T03:53:29.736Z,91.99
2022-11-10T03:56:15.270Z,91.83
2022-11-10T03:59:00.760Z,91.81
2022-11-10T04:01:46.203Z,92.03
2022-11-10T04:04:50.365Z,91.65
2022-11-10T04:07:54.379Z,91.74
2022-11-10T04:10:39.897Z,91.71
2022-11-10T04:13:44.066Z,91.73
2022-11-10T04:16:29.554Z,91.67
2022-11-10T04:19:15.030Z,91.63
2022-11-10T04:22:00.450Z,91.52
2022-11-10T04:24:45.847Z,91.59
2022-11-10T04:27:31.173Z,91.49
2022-11-10T04:30:16.603Z,91.36
2022-11-10T04:33:02.027Z,91.45
2022-11-10T04:35:47.332Z,91.28
2022-11-10T04:38:32.742Z,91.27
2022-11-10T04:41:17.936Z,91.38
2022-11-10T04:44:03.470Z,91.32
2022-11-10T04:46:49.572Z,91.11
2022-11-10T04:49:34.723Z,91.27
2022-11-10T04:52:20.245Z,91.24
2022-11-10T04:55:06.355Z,91.11
2022-11-10T04:57:51.787Z,91.53
2022-11-10T05:00:37.071Z,91.34
2022-11-10T05:03:22.955Z,91.50
2022-11-10T05:06:08.535Z,91.72
2022-11-10T05:08:54.092Z,91.41
2022-11-10T05:11:39.640Z,91.39
2022-11-10T05:14:25.236Z,91.47
2022-11-10T05:17:11.089Z,91.76
2022-11-10T05:19:56.745Z,91.72
2022-11-10T05:22:49.010Z,91.65
2022-11-10T05:25:35.985Z,92.03
2022-11-10T05:28:21.302Z,91.85
2022-11-10T05:31:07.002Z,91.66
2022-11-10T05:33:52.160Z,92.07
2022-11-10T05:36:37.651Z,92.12
2022-11-10T05:39:22.848Z,92.07
2022-11-10T05:42:08.331Z,92.42
2022-11-10T05:44:53.838Z,92.25
2022-11-10T05:47:39.557Z,92.26
2022-11-10T05:50:24.777Z,92.42
2022-11-10T05:53:10.457Z,92.39
2022-11-10T05:55:55.882Z,92.41
2022-11-10T05:58:41.411Z,92.20
2022-11-10T06:01:26.918Z,92.22
2022-11-10T06:04:12.417Z,92.17
2022-11-10T06:06:57.916Z,92.24
2022-11-10T06:09:43.308Z,92.49
2022-11-10T06:12:30.404Z,92.47
2022-11-10T06:15:16.973Z,92.44
2022-11-10T06:18:02.563Z,92.56
2022-11-10T06:20:47.980Z,92.66
2022-11-10T06:23:33.280Z,92.34
2022-11-10T06:26:18.830Z,92.49
2022-11-10T06:29:04.253Z,92.43
2022-11-10T06:31:49.611Z,92.58
2022-11-10T06:34:34.751Z,92.34
2022-11-10T06:37:20.279Z,92.46
2022-11-10T06:40:09.739Z,92.23
2022-11-10T06:42:54.910Z,92.21
2022-11-10T06:45:40.402Z,92.24
2022-11-10T06:48:25.748Z,92.23
2022-11-10T06:51:11.079Z,92.29
2022-11-10T06:53:56.533Z,92.18
2022-11-10T06:56:42.284Z,92.10
2022-11-10T06:59:28.168Z,92.08
2022-11-10T07:02:14.077Z,92.15
2022-11-10T07:04:59.512Z,92.27
2022-11-10T07:07:45.121Z,92.18
2022-11-10T07:10:30.911Z,92.05
2022-11-10T07:13:16.892Z,92.36
2022-11-10T07:16:06.394Z,92.26
2022-11-10T07:18:51.830Z,92.15
2022-11-10T07:21:36.921Z,92.25
2022-11-10T07:24:22.260Z,92.27
2022-11-10T07:27:08.349Z,92.32
2022-11-10T07:29:53.333Z,92.12
2022-11-10T07:32:38.878Z,92.14
2022-11-10T07:35:24.077Z,92.14
2022-11-10T07:38:10.919Z,92.19
2022-11-10T07:40:56.539Z,92.12
2022-11-10T07:43:42.099Z,92.17
2022-11-10T07:46:27.716Z,92.13
2022-11-10T07:49:16.479Z,92.12
2022-11-10T07:52:01.866Z,92.19
2022-11-10T07:54:47.266Z,92.03
2022-11-10T07:57:33.458Z,92.02
2022-11-10T08:00:19.094Z,91.91
2022-11-10T08:03:11.693Z,91.91
2022-11-10T08:05:57.032Z,91.84
2022-11-10T08:08:42.522Z,91.66
2022-11-10T08:11:27.840Z,91.63
2022-11-10T08:14:13.396Z,91.44
2022-11-10T08:16:58.619Z,91.11
2022-11-10T08:19:44.154Z,90.94
2022-11-10T08:22:29.523Z,90.82
2022-11-10T08:25:14.996Z,90.64
2022-11-10T08:28:01.418Z,90.55
2022-11-10T08:30:47.614Z,90.59
2022-11-10T08:33:32.964Z,90.32
2022-11-10T08:36:18.480Z,90.30
2022-11-10T08:39:04.112Z,90.25
2022-11-10T08:41:49.576Z,90.27
2022-11-10T08:44:34.986Z,90.00
2022-11-10T08:47:20.278Z,90.20
2022-11-10T08:50:06.914Z,90.20
2022-11-10T08:52:52.309Z,90.19
2022-11-10T08:55:37.885Z,90.18
2022-11-10T08:58:23.826Z,90.18
2022-11-10T09:01:10.133Z,90.19
2022-11-10T09:03:55.635Z,90.23
2022-11-10T09:06:41.093Z,90.38
2022-11-10T09:09:26.670Z,90.26
2022-11-10T09:12:11.976Z,90.22
2022-11-10T09:14:57.120Z,90.18
2022-11-10T09:17:42.284Z,90.22
2022-11-10T09:20:28.771Z,90.13
2022-11-10T09:23:19.055Z,90.16
2022-11-10T09:26:07.704Z,90.15
2022-11-10T09:28:53.066Z,90.27
2022-11-10T09:31:38.423Z,90.35
2022-11-10T09:34:23.876Z,90.31
2022-11-10T09:37:09.482Z,90.24
2022-11-10T09:41:09.146Z,90.29
2022-11-10T09:44:02.076Z,90.26
2022-11-10T09:46:57.929Z,90.31
2022-11-10T09:49:46.791Z,90.41
2022-11-10T09:52:33.268Z,90.69
2022-11-10T09:55:57.182Z,90.74
2022-11-10T09:58:43.423Z,90.77
2022-11-10T10:01:50.832Z,90.76
2022-11-10T10:05:04.400Z,91.05
2022-11-10T10:08:14.179Z,91.24
2022-11-10T10:11:14.751Z,91.40
2022-11-10T10:14:06.575Z,91.52
2022-11-10T10:17:10.936Z,91.64
2022-11-10T10:20:00.654Z,91.61
2022-11-10T10:22:55.601Z,91.70
2022-11-10T10:25:40.719Z,91.65
2022-11-10T10:28:33.701Z,91.72
2022-11-10T10:31:24.977Z,91.69
2022-11-10T10:34:12.839Z,91.71
2022-11-10T10:36:58.044Z,91.74
2022-11-10T10:39:45.021Z,91.89
2022-11-10T10:42:34.850Z,91.96
2022-11-10T10:45:29.146Z,91.99
2022-11-10T10:48:28.622Z,92.00
2022-11-10T10:51:28.780Z,92.22
2022-11-10T10:54:23.907Z,92.18
2022-11-10T10:57:25.670Z,92.36
2022-11-10T11:00:23.623Z,92.39
2022-11-10T11:03:14.229Z,92.35
2022-11-10T11:06:01.261Z,92.45
2022-11-10T11:09:00.353Z,92.50
2022-11-10T11:11:46.404Z,92.48
2022-11-10T11:14:32.051Z,92.37
2022-11-10T11:17:21.871Z,92.39
2022-11-10T11:20:13.527Z,92.30
2022-11-10T11:23:12.018Z,92.32
2022-11-10T11:26:00.935Z,92.22
2022-11-10T11:29:13.642Z,92.10
2022-11-10T11:32:29.219Z,92.07
2022-11-10T11:35:20.036Z,92.05
2022-11-10T11:38:11.264Z,91.98
2022-11-10T11:41:16.705Z,91.94
2022-11-10T11:44:01.813Z,92.09
2022-11-10T11:47:09.412Z,92.10
2022-11-10T11:50:19.843Z,92.28
2022-11-10T11:53:37.397Z,92.43
2022-11-10T11:56:31.177Z,92.68
2022-11-10T11:59:20.438Z,92.77
2022-11-10T12:02:28.647Z,92.86
2022-11-10T12:05:43.945Z,92.81
2022-11-10T12:09:03.674Z,93.04
2022-11-10T12:12:23.422Z,93.23
2022-11-10T12:15:21.977Z,93.24
2022-11-10T12:18:30.322Z,93.48
2022-11-10T12:21:21.456Z,93.66
2022-11-10T12:24:34.897Z,93.70
2022-11-10T12:27:29.048Z,93.89
2022-11-10T12:30:15.506Z,93.96
2022-11-10T12:33:04.542Z,94.12
2022-11-10T12:35:49.867Z,94.25
2022-11-10T12:38:42.117Z,94.24
2022-11-10T12:41:43.701Z,94.24
2022-11-10T12:44:32.766Z,94.36
2022-11-10T12:47:19.247Z,94.44
2022-11-10T12:50:16.728Z,94.44
2022-11-10T12:53:05.581Z,94.52
2022-11-10T12:56:02.704Z,94.46
2022-11-10T12:58:48.339Z,94.56
2022-11-10T13:01:33.810Z,94.67
2022-11-10T13:04:19.404Z,94.67
2022-11-10T13:07:10.231Z,94.64
2022-11-10T13:10:15.458Z,94.76
2022-11-10T13:13:03.877Z,94.69
2022-11-10T13:15:51.492Z,94.65
2022-11-10T13:18:36.679Z,94.70
2022-11-10T13:21:50.946Z,94.76
2022-11-10T13:24:40.847Z,94.74
2022-11-10T13:27:26.466Z,94.76
2022-11-10T13:30:39.040Z,94.97
2022-11-10T13:33:35.098Z,94.92
2022-11-10T13:36:42.734Z,94.97
2022-11-10T13:39:32.365Z,95.03
2022-11-10T13:42:23.380Z,94.99
2022-11-10T13:45:31.866Z,95.05
2022-11-10T13:48:17.400Z,94.99
2022-11-10T13:51:42.779Z,95.14
2022-11-10T13:54:49.905Z,95.25
2022-11-10T13:57:40.124Z,95.32
2022-11-10T14:00:33.227Z,95.37
2022-11-10T14:03:46.588Z,95.45
2022-11-10T14:06:45.670Z,95.53
2022-11-10T14:09:39.605Z,95.66
2022-11-10T14:12:45.545Z,95.81
2022-11-10T14:15:36.570Z,95.93
2022-11-10T14:18:25.179Z,96.01
2022-11-10T14:21:12.521Z,96.16
2022-11-10T14:24:04.336Z,96.11
2022-11-10T14:26:53.389Z,96.33
2022-11-10T14:29:40.049Z,96.25
2022-11-10T14:32:26.008Z,96.51
2022-11-10T14:35:24.786Z,96.65
2022-11-10T14:38:24.067Z,96.80
2022-11-10T14:41:15.525Z,96.84
2022-11-10T14:44:03.192Z,96.94
2022-11-10T14:46:48.569Z,97.07
2022-11-10T14:49:33.996Z,97.06
2022-11-10T14:52:19.126Z,97.15
2022-11-10T14:55:13.734Z,97.10
2022-11-10T14:58:18.253Z,97.14
2022-11-10T15:01:04.836Z,97.27
2022-11-10T15:03:50.523Z,97.33
2022-11-10T15:06:36.171Z,97.43
2022-11-10T15:09:29.729Z,97.33
2022-11-10T15:12:26.306Z,97.54
2022-11-10T15:15:22.078Z,97.71
2022-11-10T15:18:07.912Z,97.71
2022-11-10T15:21:03.979Z,97.81
2022-11-10T15:23:56.712Z,97.85
2022-11-10T15:26:41.743Z,98.03
2022-11-10T15:29:27.175Z,97.96
2022-11-10T15:32:16.408Z,98.16
2022-11-10T15:35:14.890Z,98.12
2022-11-10T15:38:09.456Z,98.29
2022-11-10T15:41:05.411Z,98.46
2022-11-10T15:43:50.749Z,98.52
2022-11-10T15:46:36.070Z,98.51
2022-11-10T15:49:36.938Z,98.70
2022-11-10T15:52:22.474Z,98.80
2022-11-10T15:55:22.754Z,98.85
2022-11-10T15:58:14.936Z,98.97
2022-11-10T16:01:01.105Z,99.05
2022-11-10T16:03:46.584Z,99.03
2022-11-10T16:06:32.562Z,99.02
2022-11-10T16:09:18.079Z,99.14
2022-11-10T16:12:04.051Z,99.07
2022-11-10T16:14:51.654Z,99.29
2022-11-10T16:17:37.090Z,99.12
2022-11-10T16:20:22.409Z,99.38
2022-11-10T16:23:07.857Z,99.35
2022-11-10T16:25:54.618Z,99.43
2022-11-10T16:28:42.040Z,99.40
2022-11-10T16:31:27.307Z,99.39
2022-11-10T16:34:13.839Z,99.51
2022-11-10T16:36:59.296Z,99.50
2022-11-10T16:39:44.874Z,99.60
2022-11-10T16:42:30.212Z,99.62
2022-11-10T16:45:20.818Z,99.58
2022-11-10T16:48:07.550Z,99.61
2022-11-10T16:50:54.236Z,99.61
2022-11-10T16:53:39.324Z,99.60
2022-11-10T16:56:26.788Z,99.61
2022-11-10T16:59:13.528Z,99.56
2022-11-10T17:01:58.950Z,99.60
2022-11-10T17:04:44.759Z,99.72
2022-11-10T17:07:30.360Z,99.67
2022-11-10T17:10:16.505Z,99.63
2022-11-10T17:13:02.229Z,99.68
2022-11-10T17:15:47.788Z,99.72
2022-11-10T17:18:33.882Z,99.62
2022-11-10T17:21:19.545Z,99.60
2022-11-10T17:24:05.130Z,99.56
2022-11-10T17:26:50.392Z,99.68
2022-11-10T17:29:36.017Z,99.63
2022-11-10T17:32:37.097Z,99.65
2022-11-10T17:35:26.970Z,99.68
2022-11-10T17:38:13.451Z,99.64
2022-11-10T17:40:58.933Z,99.45
2022-11-10T17:43:47.362Z,99.60
2022-11-10T17:46:32.750Z,99.46
2022-11-10T17:49:18.038Z,99.61
2022-11-10T17:52:03.945Z,99.65
2022-11-10T17:54:48.949Z,99.58
2022-11-10T17:57:34.937Z,99.52
2022-11-10T18:00:20.928Z,99.56
2022-11-10T18:03:08.728Z,99.49
2022-11-10T18:05:53.976Z,99.47
2022-11-10T18:08:39.110Z,99.28
2022-11-10T18:11:24.548Z,99.28
2022-11-10T18:14:11.157Z,99.24
2022-11-10T18:16:56.575Z,99.19
2022-11-10T18:19:42.116Z,99.21
2022-11-10T18:22:27.634Z,99.10
2022-11-10T18:25:13.095Z,99.15
2022-11-10T18:27:58.688Z,98.91
2022-11-10T18:30:44.081Z,99.03
2022-11-10T18:33:29.529Z,98.87
2022-11-10T18:36:15.157Z,98.93
2022-11-10T18:39:00.528Z,98.85
2022-11-10T18:41:48.921Z,98.63
2022-11-10T18:44:37.126Z,98.61
2022-11-10T18:47:22.588Z,98.41
2022-11-10T18:50:08.672Z,98.54
2022-11-10T18:52:53.714Z,98.51
2022-11-10T18:55:44.343Z,98.41
2022-11-10T18:58:30.952Z,98.29
2022-11-10T19:01:16.500Z,98.32
2022-11-10T19:04:01.888Z,98.22
2022-11-10T19:06:47.018Z,98.14
2022-11-10T19:09:32.204Z,98.01
2022-11-10T19:12:20.367Z,98.02
2022-11-10T19:15:08.692Z,97.98
2022-11-10T19:17:53.903Z,97.96
2022-11-10T19:20:39.475Z,97.77
2022-11-10T19:23:25.369Z,97.76
2022-11-10T19:26:17.898Z,97.77
2022-11-10T19:29:06.742Z,97.67
2022-11-10T19:31:51.959Z,97.72
2022-11-10T19:34:37.540Z,97.55
2022-11-10T19:37:22.963Z,97.59
2022-11-10T19:40:09.161Z,97.49
2022-11-10T19:42:54.271Z,97.44
2022-11-10T19:45:39.725Z,97.35
2022-11-10T19:48:25.391Z,97.36
2022-11-10T19:51:13.606Z,97.42
2022-11-10T19:54:05.006Z,97.57
2022-11-10T19:56:52.412Z,97.29
2022-11-10T19:59:37.751Z,97.33
2022-11-10T20:02:23.233Z,97.28
2022-11-10T20:05:16.191Z,97.33
2022-11-10T20:08:13.401Z,97.49
2022-11-10T20:11:05.151Z,97.57
2022-11-10T20:13:54.627Z,97.65
2022-11-10T20:16:40.324Z,97.58
2022-11-10T20:19:26.026Z,97.56
2022-11-10T20:22:12.793Z,97.61
2022-11-10T20:24:58.305Z,97.49
2022-11-10T20:27:44.296Z,97.46
2022-11-10T20:30:29.993Z,97.45
2022-11-10T20:33:15.605Z,97.47
2022-11-10T20:36:15.988Z,97.42
2022-11-10T20:39:04.644Z,97.53
2022-11-10T20:41:52.566Z,97.53
2022-11-10T20:44:38.154Z,97.51
2022-11-10T20:47:23.682Z,97.45
2022-11-10T20:50:14.785Z,97.56
2022-11-10T20:53:01.692Z,97.40
2022-11-10T20:55:54.320Z,97.27
2022-11-10T20:58:40.348Z,97.31
2022-11-10T21:01:25.700Z,97.21
2022-11-10T21:04:11.160Z,97.24
2022-11-10T21:06:56.391Z,97.15
2022-11-10T21:09:41.978Z,97.15
2022-11-10T21:12:46.086Z,97.28
2022-11-10T21:15:31.381Z,97.19
2022-11-10T21:18:17.224Z,97.29
2022-11-10T21:21:03.887Z,97.31
2022-11-10T21:23:57.075Z,97.27
2022-11-10T21:26:42.444Z,97.11
2022-11-10T21:29:28.107Z,97.21
2022-11-10T21:32:13.363Z,97.24
2022-11-10T21:34:58.573Z,97.13
2022-11-10T21:37:43.795Z,97.12
2022-11-10T21:40:30.348Z,96.97
2022-11-10T21:43:15.576Z,96.96
2022-11-10T21:46:05.987Z,96.98
2022-11-10T21:48:51.363Z,96.95
2022-11-10T21:51:36.788Z,96.92
2022-11-10T21:54:22.220Z,96.81
2022-11-10T21:58:13.798Z,96.68
2022-11-10T22:01:04.906Z,96.63
2022-11-10T22:03:50.513Z,96.67
2022-11-10T22:06:55.015Z,96.66
2022-11-10T22:09:58.936Z,96.73
2022-11-10T22:13:03.224Z,96.81
2022-11-10T22:16:07.794Z,96.72
2022-11-10T22:18:53.025Z,96.58
2022-11-10T22:21:38.441Z,96.60
2022-11-10T22:24:23.783Z,96.51
2022-11-10T22:27:09.205Z,96.39
2022-11-10T22:29:54.603Z,96.42
2022-11-10T22:32:39.924Z,96.68
2022-11-10T22:35:43.221Z,96.52
2022-11-10T22:38:33.638Z,96.54
2022-11-10T22:41:37.563Z,96.33
2022-11-10T22:44:25.193Z,96.14
2022-11-10T22:47:10.962Z,96.04
2022-11-10T22:49:56.577Z,96.06
2022-11-10T22:52:42.100Z,96.07
2022-11-10T22:55:27.414Z,95.72
2022-11-10T22:58:12.860Z,95.91
2022-11-10T23:01:11.376Z,95.93
2022-11-10T23:04:00.673Z,95.78
2022-11-10T23:06:46.229Z,95.67
2022-11-10T23:09:31.410Z,95.64
2022-11-10T23:12:16.779Z,95.72
2022-11-10T23:15:02.244Z,95.56
2022-11-10T23:17:47.734Z,95.74
2022-11-10T23:20:33.031Z,95.68
2022-11-10T23:23:18.192Z,95.54
2022-11-10T23:26:06.130Z,95.50
2022-11-10T23:28:52.531Z,95.55
2022-11-10T23:31:37.665Z,95.40
2022-11-10T23:34:22.931Z,95.45
2022-11-10T23:37:08.229Z,95.41
2022-11-10T23:39:53.631Z,95.39
2022-11-10T23:42:39.059Z,95.43
2022-11-10T23:45:29.794Z,95.42
2022-11-10T23:48:22.642Z,95.65
2022-11-10T23:51:10.466Z,95.51
2022-11-10T23:53:55.861Z,95.39
2022-11-10T23:56:41.379Z,95.50
2022-11-10T23:59:26.804Z,95.61
